Terminal Aerodrome Forecast
Issued by NWS

Home | Current Version | Previous Version | Text Only | Print | Product List | Glossary On
Versions: 1 2 3 4 5 6 7 8 9 10 11 12 13 14 15 16 17
505
FTUS46 KPDT 051321 AAA
TAFPSC
TAF AMD
KPSC 051321Z 0513/0612 22005KT P6SM FEW120
     FM051900 22005KT P6SM SCT050 BKN090
     FM060200 33005KT 5SM -SHSN BR BKN020 OVC030
     FM060700 31009KT 2SM -SHSN BR OVC015=

USA.gov is the U.S. government's official web portal to all federal, state and local government web resources and services.